createdAt,value
2019-04-16T00:01:11.298Z,100.00
2019-04-16T00:03:43.550Z,100.00
2019-04-16T00:06:35.271Z,100.00
2019-04-16T00:09:14.289Z,100.00
2019-04-16T00:11:58.758Z,100.00
2019-04-16T00:14:36.099Z,100.00
2019-04-16T00:17:06.496Z,100.00
2019-04-16T00:19:35.660Z,100.00
2019-04-16T00:22:13.352Z,100.00
2019-04-16T00:24:46.424Z,100.00
2019-04-16T00:27:17.353Z,100.00
2019-04-16T00:29:46.511Z,100.00
2019-04-16T00:32:25.917Z,100.00
2019-04-16T00:34:55.515Z,100.00
2019-04-16T00:37:26.551Z,100.00
2019-04-16T00:39:58.323Z,100.00
2019-04-16T00:42:28.546Z,100.00
2019-04-16T00:44:58.335Z,100.00
2019-04-16T00:47:27.932Z,100.00
2019-04-16T00:49:58.852Z,100.00
2019-04-16T00:52:30.353Z,100.00
2019-04-16T00:55:00.058Z,100.00
2019-04-16T00:57:31.637Z,100.00
2019-04-16T01:00:01.355Z,100.00
2019-04-16T01:02:32.485Z,100.00
2019-04-16T01:05:05.119Z,100.00
2019-04-16T01:07:37.940Z,100.00
2019-04-16T01:10:08.677Z,100.00
2019-04-16T01:12:39.125Z,100.00
2019-04-16T01:15:08.856Z,100.00
2019-04-16T01:17:38.290Z,100.00
2019-04-16T01:20:11.811Z,100.00
2019-04-16T01:22:39.679Z,100.00
2019-04-16T01:25:12.082Z,100.00
2019-04-16T01:27:48.762Z,100.00
2019-04-16T01:30:24.041Z,100.00
2019-04-16T01:33:08.559Z,100.00
2019-04-16T01:36:00.087Z,100.00
2019-04-16T01:38:40.325Z,100.00
2019-04-16T01:41:14.519Z,100.00
2019-04-16T01:43:47.062Z,100.00
2019-04-16T01:46:18.343Z,100.00
2019-04-16T01:48:48.465Z,100.00
2019-04-16T01:51:18.428Z,100.00
2019-04-16T01:53:52.331Z,100.00
2019-04-16T01:56:22.620Z,100.00
2019-04-16T01:58:54.042Z,100.00
2019-04-16T02:01:25.357Z,100.00
2019-04-16T02:03:55.631Z,100.00
2019-04-16T02:06:26.545Z,100.00
2019-04-16T02:08:56.310Z,100.00
2019-04-16T02:11:26.028Z,100.00
2019-04-16T02:13:58.220Z,100.00
2019-04-16T02:16:32.974Z,100.00
2019-04-16T02:19:05.637Z,100.00
2019-04-16T02:21:39.037Z,100.00
2019-04-16T02:24:07.821Z,100.00
2019-04-16T02:26:41.425Z,100.00
2019-04-16T02:29:10.863Z,100.00
2019-04-16T02:31:42.327Z,100.00
2019-04-16T02:34:16.310Z,100.00
2019-04-16T02:36:49.189Z,100.00
2019-04-16T02:39:22.529Z,100.00
2019-04-16T02:41:56.794Z,100.00
2019-04-16T02:44:27.252Z,100.00
2019-04-16T02:46:56.875Z,100.00
2019-04-16T02:49:29.209Z,100.00
2019-04-16T02:52:17.381Z,100.00
2019-04-16T02:54:58.007Z,100.00
2019-04-16T02:57:38.034Z,100.00
2019-04-16T03:00:33.505Z,100.00
2019-04-16T03:03:08.610Z,100.00
2019-04-16T03:05:41.771Z,100.00
2019-04-16T03:08:11.599Z,100.00
2019-04-16T03:10:44.663Z,100.00
2019-04-16T03:13:17.017Z,100.00
2019-04-16T03:16:06.006Z,100.00
2019-04-16T03:19:06.001Z,100.00
2019-04-16T03:21:36.717Z,100.00
2019-04-16T03:24:09.065Z,100.00
2019-04-16T03:26:44.227Z,100.00
2019-04-16T03:29:13.386Z,100.00
2019-04-16T03:31:43.855Z,100.00
2019-04-16T03:34:21.884Z,100.00
2019-04-16T03:36:52.586Z,100.00
2019-04-16T03:39:22.360Z,100.00
2019-04-16T03:41:55.928Z,100.00
2019-04-16T03:44:24.038Z,100.00
2019-04-16T03:46:57.145Z,100.00
2019-04-16T03:49:28.511Z,100.00
2019-04-16T03:51:57.908Z,100.00
2019-04-16T03:54:28.129Z,100.00
2019-04-16T03:57:01.852Z,100.00
2019-04-16T03:59:33.774Z,100.00
2019-04-16T04:02:05.148Z,100.00
2019-04-16T04:04:36.472Z,100.00
2019-04-16T04:07:09.057Z,100.00
2019-04-16T04:09:38.919Z,100.00
2019-04-16T04:12:13.016Z,100.00
2019-04-16T04:14:46.336Z,100.00
2019-04-16T04:17:16.404Z,100.00
2019-04-16T04:19:46.919Z,100.00
2019-04-16T04:22:16.587Z,100.00
2019-04-16T04:25:03.892Z,100.00
2019-04-16T04:27:29.681Z,100.00
2019-04-16T04:30:06.240Z,100.00
2019-04-16T04:32:36.297Z,100.00
2019-04-16T04:35:07.344Z,100.00
2019-04-16T04:37:46.342Z,100.00
2019-04-16T04:40:17.122Z,100.00
2019-04-16T04:42:46.513Z,100.00
2019-04-16T04:45:15.986Z,100.00
2019-04-16T04:47:45.126Z,100.00
2019-04-16T04:50:14.418Z,100.00
2019-04-16T04:52:46.157Z,100.00
2019-04-16T04:55:15.327Z,100.00
2019-04-16T04:57:45.936Z,100.00
2019-04-16T05:00:17.395Z,100.00
2019-04-16T05:02:47.454Z,100.00
2019-04-16T05:05:25.805Z,100.00
2019-04-16T05:07:59.683Z,100.00
2019-04-16T05:10:42.813Z,100.00
2019-04-16T05:13:14.182Z,100.00
2019-04-16T05:15:43.465Z,100.00
2019-04-16T05:18:13.745Z,100.00
2019-04-16T05:20:46.713Z,100.00
2019-04-16T05:23:14.686Z,100.00
2019-04-16T05:25:43.893Z,100.00
2019-04-16T05:28:13.474Z,100.00
2019-04-16T05:30:52.320Z,100.00
2019-04-16T05:33:22.135Z,100.00
2019-04-16T05:35:51.878Z,100.00
2019-04-16T05:38:23.793Z,100.00
2019-04-16T05:40:52.042Z,100.00
2019-04-16T05:43:30.041Z,100.00
2019-04-16T05:45:56.238Z,100.00
2019-04-16T05:48:25.566Z,100.00
2019-04-16T05:50:59.694Z,100.00
2019-04-16T05:53:30.121Z,100.00
2019-04-16T05:56:06.099Z,100.00
2019-04-16T05:58:36.041Z,100.00
2019-04-16T06:01:20.458Z,100.00
2019-04-16T06:03:52.810Z,100.00
2019-04-16T06:06:21.292Z,100.00
2019-04-16T06:08:51.688Z,100.00
2019-04-16T06:11:35.737Z,100.00
2019-04-16T06:14:19.307Z,100.00
2019-04-16T06:17:08.630Z,100.00
2019-04-16T06:20:13.237Z,100.00
2019-04-16T06:22:52.601Z,100.00
2019-04-16T06:25:35.438Z,100.00
2019-04-16T06:28:24.785Z,100.00
2019-04-16T06:31:10.107Z,100.00
2019-04-16T06:33:57.288Z,100.00
2019-04-16T06:36:43.907Z,100.00
2019-04-16T06:39:32.048Z,100.00
2019-04-16T06:42:22.458Z,100.00
2019-04-16T06:44:53.398Z,100.00
2019-04-16T06:47:45.001Z,100.00
2019-04-16T06:50:40.495Z,100.00
2019-04-16T06:53:23.809Z,100.00
2019-04-16T06:56:13.800Z,100.00
2019-04-16T06:58:57.239Z,100.00
2019-04-16T07:01:41.478Z,100.00
2019-04-16T07:04:18.140Z,100.00
2019-04-16T07:07:08.575Z,100.00
2019-04-16T07:09:45.907Z,100.00
2019-04-16T07:12:23.520Z,100.00
2019-04-16T07:14:53.002Z,100.00
2019-04-16T07:17:22.521Z,100.00
2019-04-16T07:19:52.876Z,100.00
2019-04-16T07:22:22.269Z,100.00
2019-04-16T07:24:56.604Z,100.00
2019-04-16T07:27:36.131Z,100.00
2019-04-16T07:30:08.669Z,100.00
2019-04-16T07:32:47.497Z,100.00
2019-04-16T07:35:49.616Z,100.00
2019-04-16T07:38:24.650Z,100.00
2019-04-16T07:41:16.824Z,100.00
2019-04-16T07:44:22.317Z,100.00
2019-04-16T07:47:14.036Z,100.00
2019-04-16T07:49:50.063Z,100.00
2019-04-16T07:52:42.631Z,100.00
2019-04-16T07:55:36.296Z,100.00
2019-04-16T07:58:07.962Z,100.00
2019-04-16T08:00:41.302Z,100.00
2019-04-16T08:03:09.734Z,100.00
2019-04-16T08:05:41.976Z,99.86
2019-04-16T08:08:11.447Z,97.18
2019-04-16T08:10:44.368Z,96.99
2019-04-16T08:13:27.623Z,97.46
2019-04-16T08:16:02.729Z,94.74
2019-04-16T08:18:32.611Z,95.49
2019-04-16T08:21:10.188Z,96.46
2019-04-16T08:23:39.087Z,96.31
2019-04-16T08:26:11.937Z,94.28
2019-04-16T08:28:39.372Z,93.17
2019-04-16T08:31:13.257Z,93.76
2019-04-16T08:33:55.869Z,91.49
2019-04-16T08:36:26.264Z,91.11
2019-04-16T08:38:57.143Z,88.58
2019-04-16T08:41:27.411Z,88.42
2019-04-16T08:44:04.605Z,88.72
2019-04-16T08:46:34.773Z,85.82
2019-04-16T08:49:04.439Z,85.64
2019-04-16T08:51:37.009Z,84.83
2019-04-16T08:54:04.764Z,84.14
2019-04-16T08:56:33.995Z,84.14
2019-04-16T08:59:03.214Z,86.49
2019-04-16T09:01:34.813Z,83.27
2019-04-16T09:04:05.097Z,83.24
2019-04-16T09:06:34.553Z,84.83
2019-04-16T09:09:18.046Z,81.88
2019-04-16T09:11:48.605Z,79.95
2019-04-16T09:14:26.651Z,78.96
2019-04-16T09:17:17.843Z,77.91
2019-04-16T09:19:52.877Z,77.29
2019-04-16T09:22:49.077Z,78.42
2019-04-16T09:25:54.100Z,76.72
2019-04-16T09:28:41.455Z,76.27
2019-04-16T09:31:30.889Z,75.22
2019-04-16T09:34:19.156Z,72.99
2019-04-16T09:37:16.333Z,72.27
2019-04-16T09:40:01.115Z,73.28
2019-04-16T09:42:38.318Z,64.77
2019-04-16T09:45:18.455Z,61.04
2019-04-16T09:47:48.308Z,61.73
2019-04-16T09:50:17.534Z,62.46
2019-04-16T09:52:48.242Z,59.43
2019-04-16T09:55:19.592Z,53.64
2019-04-16T09:57:49.106Z,52.63
2019-04-16T10:00:24.358Z,51.18
2019-04-16T10:02:55.269Z,49.54
2019-04-16T10:05:26.493Z,50.49
2019-04-16T10:07:57.061Z,50.26
2019-04-16T10:10:28.297Z,50.16
2019-04-16T10:12:57.572Z,50.77
2019-04-16T10:15:26.755Z,47.53
2019-04-16T10:17:58.616Z,48.07
2019-04-16T10:20:26.956Z,48.06
2019-04-16T10:22:56.209Z,46.73
2019-04-16T10:25:25.435Z,46.68
2019-04-16T10:28:01.961Z,45.40
2019-04-16T10:30:39.838Z,46.76
2019-04-16T10:33:10.000Z,45.74
2019-04-16T10:35:40.573Z,42.74
2019-04-16T10:38:27.908Z,44.02
2019-04-16T10:41:03.416Z,43.35
2019-04-16T10:43:50.432Z,43.76
2019-04-16T10:46:44.460Z,42.69
2019-04-16T10:49:34.840Z,43.57
2019-04-16T10:52:17.281Z,42.82
2019-04-16T10:55:05.402Z,44.11
2019-04-16T10:57:43.969Z,43.08
2019-04-16T11:00:44.881Z,42.10
2019-04-16T11:03:19.699Z,42.86
2019-04-16T11:05:59.430Z,44.08
2019-04-16T11:08:29.483Z,41.95
2019-04-16T11:11:02.387Z,40.47
2019-04-16T11:13:58.573Z,40.26
2019-04-16T11:19:10.921Z,44.93
2019-04-16T11:22:03.870Z,43.26
2019-04-16T11:24:34.117Z,41.75
2019-04-16T11:27:04.703Z,38.82
2019-04-16T11:29:34.257Z,39.03
2019-04-16T11:32:04.500Z,39.79
2019-04-16T11:34:35.798Z,38.45
2019-04-16T11:37:08.058Z,38.45
2019-04-16T11:39:37.253Z,38.38
2019-04-16T11:42:06.885Z,38.40
2019-04-16T11:44:36.932Z,38.11
2019-04-16T11:47:07.566Z,36.72
2019-04-16T11:49:37.676Z,37.26
2019-04-16T11:52:07.613Z,37.39
2019-04-16T11:54:37.609Z,37.33
2019-04-16T11:57:07.275Z,38.71
2019-04-16T11:59:38.333Z,37.75
2019-04-16T12:02:14.229Z,36.39
2019-04-16T12:05:17.473Z,36.06
2019-04-16T12:08:14.014Z,36.99
2019-04-16T12:11:21.017Z,37.41
2019-04-16T12:14:09.954Z,37.28
2019-04-16T12:16:48.855Z,36.74
2019-04-16T12:19:37.975Z,35.61
2019-04-16T12:22:27.362Z,34.84
2019-04-16T12:25:16.761Z,36.43
2019-04-16T12:28:12.624Z,37.22
2019-04-16T12:30:57.298Z,35.80
2019-04-16T12:33:44.114Z,35.02
2019-04-16T12:36:23.697Z,34.56
2019-04-16T12:39:10.630Z,34.22
2019-04-16T12:41:51.616Z,35.22
2019-04-16T12:44:44.556Z,35.16
2019-04-16T12:47:16.806Z,34.58
2019-04-16T12:49:53.379Z,35.49
2019-04-16T12:52:28.494Z,34.19
2019-04-16T12:55:14.261Z,36.22
2019-04-16T12:58:11.952Z,38.02
2019-04-16T13:01:11.098Z,38.12
2019-04-16T13:04:01.196Z,36.62
2019-04-16T13:06:40.475Z,35.86
2019-04-16T13:09:49.995Z,35.25
2019-04-16T13:12:38.854Z,34.11
2019-04-16T13:15:22.265Z,32.92
2019-04-16T13:18:04.006Z,34.05
2019-04-16T13:21:06.426Z,33.83
2019-04-16T13:23:41.100Z,33.00
2019-04-16T13:26:31.163Z,32.03
2019-04-16T13:29:02.086Z,30.82
2019-04-16T13:31:32.122Z,31.25
2019-04-16T13:34:02.419Z,30.16
2019-04-16T13:36:32.168Z,30.16
2019-04-16T13:39:19.003Z,29.73
2019-04-16T13:41:48.486Z,30.25
2019-04-16T13:44:18.965Z,34.17
2019-04-16T13:46:52.371Z,35.24
2019-04-16T13:49:36.363Z,33.93
2019-04-16T13:52:08.332Z,36.41
2019-04-16T13:55:02.259Z,36.72
2019-04-16T13:57:32.740Z,37.06
2019-04-16T14:00:13.647Z,35.93
2019-04-16T14:02:55.158Z,35.59
2019-04-16T14:05:28.081Z,33.63
2019-04-16T14:07:57.881Z,33.11
2019-04-16T14:10:27.314Z,33.53
2019-04-16T14:12:57.020Z,32.07
2019-04-16T14:15:32.375Z,33.55
2019-04-16T14:18:03.213Z,33.86
2019-04-16T14:20:32.920Z,33.12
2019-04-16T14:23:05.681Z,35.08
2019-04-16T14:25:36.962Z,34.88
2019-04-16T14:28:06.402Z,35.17
2019-04-16T14:30:42.690Z,37.43
2019-04-16T14:33:16.935Z,37.31
2019-04-16T14:35:51.002Z,36.63
2019-04-16T14:38:27.597Z,35.07
2019-04-16T14:40:56.890Z,34.38
2019-04-16T14:43:33.704Z,33.28
2019-04-16T14:46:02.910Z,33.49
2019-04-16T14:48:32.747Z,33.13
2019-04-16T14:51:01.955Z,32.67
2019-04-16T14:53:53.461Z,32.83
2019-04-16T14:56:37.790Z,35.35
2019-04-16T14:59:35.201Z,36.38
2019-04-16T15:02:22.815Z,39.31
2019-04-16T15:05:20.750Z,38.42
2019-04-16T15:08:09.614Z,35.43
2019-04-16T15:10:58.904Z,36.69
2019-04-16T15:13:59.186Z,35.57
2019-04-16T15:16:50.632Z,37.76
2019-04-16T15:19:37.183Z,38.66
2019-04-16T15:22:36.311Z,41.58
2019-04-16T15:25:38.589Z,38.74
2019-04-16T15:28:19.614Z,39.53
2019-04-16T15:31:05.692Z,38.28
2019-04-16T15:33:59.968Z,35.27
2019-04-16T15:36:32.412Z,33.78
2019-04-16T15:39:11.277Z,34.29
2019-04-16T15:42:01.110Z,33.87
2019-04-16T15:44:41.386Z,35.63
2019-04-16T15:47:34.510Z,34.92
2019-04-16T15:50:12.979Z,35.14
2019-04-16T15:52:59.065Z,34.63
2019-04-16T15:55:47.486Z,36.04
2019-04-16T15:58:36.216Z,39.52
2019-04-16T16:01:21.825Z,40.61
2019-04-16T16:04:09.737Z,40.49
2019-04-16T16:06:57.785Z,39.23
2019-04-16T16:09:41.060Z,40.81
2019-04-16T16:12:22.254Z,41.09
2019-04-16T16:14:57.736Z,41.89
2019-04-16T16:17:31.722Z,40.87
2019-04-16T16:20:02.204Z,42.57
2019-04-16T16:22:38.578Z,44.46
2019-04-16T16:25:09.382Z,44.95
2019-04-16T16:27:42.607Z,44.09
2019-04-16T16:30:14.451Z,42.83
2019-04-16T16:32:41.856Z,42.25
2019-04-16T16:35:16.942Z,44.68
2019-04-16T16:37:45.091Z,45.90
2019-04-16T16:40:16.236Z,46.06
2019-04-16T16:42:47.119Z,48.52
2019-04-16T16:45:20.273Z,54.09
2019-04-16T16:47:52.758Z,57.66
2019-04-16T16:50:23.409Z,55.14
2019-04-16T16:52:57.796Z,56.25
2019-04-16T16:55:54.765Z,55.44
2019-04-16T16:58:46.811Z,56.11
2019-04-16T17:01:37.511Z,58.16
2019-04-16T17:04:15.625Z,67.46
2019-04-16T17:06:44.802Z,72.09
2019-04-16T17:09:30.406Z,74.68
2019-04-16T17:11:59.092Z,78.48
2019-04-16T17:14:28.253Z,76.51
2019-04-16T17:17:11.782Z,77.58
2019-04-16T17:19:28.654Z,78.98
2019-04-16T17:21:57.828Z,78.78
2019-04-16T17:24:27.351Z,77.44
2019-04-16T17:26:57.343Z,79.64
2019-04-16T17:29:27.643Z,79.40
2019-04-16T17:31:57.120Z,79.92
2019-04-16T17:34:27.147Z,81.58
2019-04-16T17:36:56.445Z,80.40
2019-04-16T17:39:47.818Z,80.42
2019-04-16T17:42:18.352Z,80.28
2019-04-16T17:45:05.216Z,79.17
2019-04-16T17:47:56.474Z,80.91
2019-04-16T17:50:42.093Z,83.04
2019-04-16T17:53:30.206Z,84.19
2019-04-16T17:56:20.469Z,84.81
2019-04-16T17:58:58.112Z,84.02
2019-04-16T18:01:56.786Z,83.46
2019-04-16T18:04:45.423Z,84.70
2019-04-16T18:07:34.617Z,84.42
2019-04-16T18:10:26.853Z,86.37
2019-04-16T18:13:14.114Z,86.90
2019-04-16T18:15:53.304Z,88.96
2019-04-16T18:18:26.713Z,92.34
2019-04-16T18:21:24.218Z,95.83
2019-04-16T18:24:12.012Z,96.39
2019-04-16T18:26:59.972Z,90.56
2019-04-16T18:29:41.525Z,94.07
2019-04-16T18:32:30.867Z,96.76
2019-04-16T18:35:19.572Z,98.62
2019-04-16T18:38:15.818Z,99.67
2019-04-16T18:40:52.427Z,100.00
2019-04-16T18:43:54.279Z,100.00
2019-04-16T18:46:41.978Z,100.00
2019-04-16T18:49:17.536Z,100.00
2019-04-16T18:51:52.276Z,100.00
2019-04-16T18:54:22.228Z,100.00
2019-04-16T18:56:54.773Z,100.00
2019-04-16T18:59:25.045Z,100.00
2019-04-16T19:02:00.029Z,100.00
2019-04-16T19:04:32.291Z,100.00
2019-04-16T19:07:01.588Z,99.55
2019-04-16T19:09:30.772Z,96.64
2019-04-16T19:12:00.664Z,92.80
2019-04-16T19:14:29.859Z,91.00
2019-04-16T19:16:59.063Z,89.45
2019-04-16T19:19:29.073Z,90.90
2019-04-16T19:21:58.523Z,93.18
2019-04-16T19:24:28.054Z,94.14
2019-04-16T19:27:00.721Z,95.28
2019-04-16T19:29:31.294Z,99.10
2019-04-16T19:32:12.231Z,97.57
2019-04-16T19:34:41.894Z,95.42
2019-04-16T19:37:12.267Z,97.51
2019-04-16T19:39:43.731Z,100.00
2019-04-16T19:42:16.495Z,100.00
2019-04-16T19:44:48.138Z,100.00
2019-04-16T19:47:19.556Z,100.00
2019-04-16T19:49:51.560Z,100.00
2019-04-16T19:52:24.082Z,100.00
2019-04-16T19:54:57.456Z,100.00
2019-04-16T19:57:27.937Z,100.00
2019-04-16T19:59:57.367Z,100.00
2019-04-16T20:02:33.243Z,100.00
2019-04-16T20:05:05.526Z,100.00
2019-04-16T20:07:35.672Z,100.00
2019-04-16T20:10:06.048Z,100.00
2019-04-16T20:12:42.535Z,100.00
2019-04-16T20:15:15.131Z,100.00
2019-04-16T20:17:46.202Z,100.00
2019-04-16T20:20:24.867Z,100.00
2019-04-16T20:22:56.020Z,100.00
2019-04-16T20:25:25.266Z,100.00
2019-04-16T20:27:58.287Z,100.00
2019-04-16T20:30:27.825Z,100.00
2019-04-16T20:33:01.811Z,100.00
2019-04-16T20:35:32.631Z,100.00
2019-04-16T20:38:05.861Z,100.00
2019-04-16T20:40:37.132Z,100.00
2019-04-16T20:43:09.976Z,100.00
2019-04-16T20:45:40.856Z,100.00
2019-04-16T20:48:12.489Z,100.00
2019-04-16T20:50:42.121Z,100.00
2019-04-16T20:53:13.367Z,100.00
2019-04-16T20:55:47.073Z,100.00
2019-04-16T20:58:14.867Z,100.00
2019-04-16T21:00:46.673Z,100.00
2019-04-16T21:03:22.264Z,100.00
2019-04-16T21:05:57.913Z,100.00
2019-04-16T21:08:24.249Z,100.00
2019-04-16T21:10:51.796Z,100.00
2019-04-16T21:13:21.206Z,100.00
2019-04-16T21:15:50.406Z,100.00
2019-04-16T21:18:21.693Z,100.00
2019-04-16T21:20:52.803Z,100.00
2019-04-16T21:23:22.562Z,100.00
2019-04-16T21:25:53.305Z,100.00
2019-04-16T21:28:36.561Z,100.00
2019-04-16T21:31:23.888Z,100.00
2019-04-16T21:34:24.214Z,100.00
2019-04-16T21:37:17.242Z,100.00
2019-04-16T21:39:55.981Z,100.00
2019-04-16T21:42:34.475Z,100.00
2019-04-16T21:45:03.158Z,100.00
2019-04-16T21:47:33.077Z,100.00
2019-04-16T21:50:02.491Z,100.00
2019-04-16T21:52:31.713Z,100.00
2019-04-16T21:55:04.650Z,100.00
2019-04-16T21:57:33.694Z,100.00
2019-04-16T22:00:04.771Z,100.00
2019-04-16T22:02:37.961Z,100.00
2019-04-16T22:05:09.421Z,100.00
2019-04-16T22:07:49.314Z,100.00
2019-04-16T22:10:21.481Z,100.00
2019-04-16T22:12:51.400Z,100.00
2019-04-16T22:15:25.174Z,100.00
2019-04-16T22:17:54.211Z,100.00
2019-04-16T22:20:24.687Z,100.00
2019-04-16T22:22:54.218Z,100.00
2019-04-16T22:25:26.529Z,100.00
2019-04-16T22:27:55.459Z,100.00
2019-04-16T22:30:25.191Z,100.00
2019-04-16T22:32:54.417Z,100.00
2019-04-16T22:35:23.927Z,100.00
2019-04-16T22:37:55.146Z,100.00
2019-04-16T22:40:45.936Z,100.00
2019-04-16T22:43:36.053Z,100.00
2019-04-16T22:46:24.257Z,100.00
2019-04-16T22:49:00.544Z,100.00
2019-04-16T22:51:46.405Z,100.00
2019-04-16T22:54:17.654Z,100.00
2019-04-16T22:57:11.089Z,100.00
2019-04-16T22:59:44.213Z,100.00
2019-04-16T23:02:19.946Z,100.00
2019-04-16T23:04:51.680Z,100.00
2019-04-16T23:07:20.862Z,100.00
2019-04-16T23:09:50.074Z,100.00
2019-04-16T23:12:19.274Z,100.00
2019-04-16T23:14:52.574Z,100.00
2019-04-16T23:17:26.071Z,100.00
2019-04-16T23:19:56.192Z,100.00
2019-04-16T23:22:25.876Z,100.00
2019-04-16T23:25:01.307Z,100.00
2019-04-16T23:27:30.969Z,100.00
2019-04-16T23:30:04.094Z,100.00
2019-04-16T23:32:34.642Z,100.00
2019-04-16T23:35:10.800Z,100.00
2019-04-16T23:37:40.159Z,100.00
2019-04-16T23:40:12.145Z,100.00
2019-04-16T23:42:57.982Z,100.00
2019-04-16T23:45:38.294Z,100.00
2019-04-16T23:48:22.269Z,100.00
2019-04-16T23:51:01.335Z,100.00
2019-04-16T23:53:53.461Z,100.00
2019-04-16T23:56:41.532Z,100.00
2019-04-16T23:59:27.637Z,100.00
